NRT weather

Narita International Airport
Tokyo, Chiba Prefecture, Japan

Public forecast

Using degrees Celsius for public forecast. Weather courtesy of forecast.io.

Current aviation weather report (METAR) for Narita International Airport

Retrieved 2020/04/03 19:30 UTC (26 minutes ago):

RJAA 031930Z 15006KT 9999 FEW025 BKN130 10/09 Q1016 NOSIG

Aviation forecast (TAF) for Narita International Airport

Retrieved 2020/04/03 18:00 UTC (2 hours ago):

TAF RJAA 031707Z 0318/0500 18005KT 9999 FEW015 BECMG 0401/0403 21015KT TEMPO 0403/0409 21016G28KT BECMG 0415/0418 36012KT